createdAt,value
2019-04-25T00:01:27.963Z,12.20
2019-04-25T00:03:57.041Z,12.10
2019-04-25T00:06:26.277Z,12.10
2019-04-25T00:08:55.405Z,12.00
2019-04-25T00:11:24.714Z,12.00
2019-04-25T00:13:54.088Z,12.00
2019-04-25T00:16:25.393Z,12.00
2019-04-25T00:18:56.171Z,12.00
2019-04-25T00:21:32.061Z,11.90
2019-04-25T00:24:06.782Z,11.90
2019-04-25T00:26:41.499Z,12.00
2019-04-25T00:29:13.213Z,11.90
2019-04-25T00:31:48.218Z,11.90
2019-04-25T00:34:33.705Z,11.90
2019-04-25T00:37:06.307Z,11.90
2019-04-25T00:39:38.609Z,11.90
2019-04-25T00:42:12.263Z,11.80
2019-04-25T00:44:44.559Z,11.80
2019-04-25T00:47:16.979Z,11.80
2019-04-25T00:49:47.960Z,11.80
2019-04-25T00:52:19.361Z,11.80
2019-04-25T00:54:48.725Z,11.70
2019-04-25T00:57:18.424Z,11.70
2019-04-25T01:00:17.326Z,11.70
2019-04-25T01:02:53.201Z,11.70
2019-04-25T01:05:23.496Z,11.70
2019-04-25T01:07:53.553Z,11.70
2019-04-25T01:10:23.582Z,11.60
2019-04-25T01:12:53.291Z,11.60
2019-04-25T01:15:22.810Z,11.60
2019-04-25T01:17:52.605Z,11.60
2019-04-25T01:20:23.989Z,11.60
2019-04-25T01:22:56.962Z,11.60
2019-04-25T01:25:24.531Z,11.60
2019-04-25T01:27:54.733Z,11.60
2019-04-25T01:30:25.653Z,11.60
2019-04-25T01:32:55.416Z,11.60
2019-04-25T01:35:34.464Z,11.60
2019-04-25T01:38:29.430Z,11.60
2019-04-25T01:41:10.610Z,11.70
2019-04-25T01:43:45.119Z,11.70
2019-04-25T01:46:14.894Z,11.70
2019-04-25T01:48:44.305Z,11.20
2019-04-25T01:51:14.204Z,11.70
2019-04-25T01:53:54.215Z,11.70
2019-04-25T01:56:24.801Z,11.70
2019-04-25T01:58:55.025Z,11.70
2019-04-25T02:01:27.237Z,11.70
2019-04-25T02:03:56.967Z,11.70
2019-04-25T02:06:28.846Z,11.70
2019-04-25T02:08:58.394Z,11.70
2019-04-25T02:11:34.653Z,11.70
2019-04-25T02:14:05.209Z,11.60
2019-04-25T02:16:37.153Z,11.60
2019-04-25T02:19:06.138Z,11.60
2019-04-25T02:21:35.705Z,11.50
2019-04-25T02:24:05.962Z,11.40
2019-04-25T02:26:35.493Z,11.40
2019-04-25T02:29:04.746Z,11.30
2019-04-25T02:31:34.733Z,11.20
2019-04-25T02:34:08.206Z,11.30
2019-04-25T02:36:36.248Z,11.20
2019-04-25T02:39:11.219Z,11.20
2019-04-25T02:41:40.770Z,11.20
2019-04-25T02:44:10.223Z,11.20
2019-04-25T02:47:08.137Z,11.20
2019-04-25T02:49:57.287Z,11.10
2019-04-25T02:52:30.378Z,11.10
2019-04-25T02:55:00.394Z,11.10
2019-04-25T02:57:31.013Z,11.20
2019-04-25T03:00:00.467Z,11.20
2019-04-25T03:02:29.548Z,11.30
2019-04-25T03:05:00.814Z,11.40
2019-04-25T03:07:30.464Z,11.40
2019-04-25T03:09:59.655Z,11.30
2019-04-25T03:12:33.213Z,11.30
2019-04-25T03:15:01.865Z,11.20
2019-04-25T03:17:34.284Z,11.10
2019-04-25T03:20:17.286Z,11.10
2019-04-25T03:22:48.291Z,11.10
2019-04-25T03:25:17.866Z,11.10
2019-04-25T03:27:50.396Z,11.10
2019-04-25T03:30:19.635Z,11.10
2019-04-25T03:32:51.469Z,11.10
2019-04-25T03:35:20.309Z,11.10
2019-04-25T03:37:49.657Z,11.10
2019-04-25T03:40:19.075Z,11.10
2019-04-25T03:42:48.493Z,11.10
2019-04-25T03:45:20.832Z,11.10
2019-04-25T03:47:50.591Z,11.10
2019-04-25T03:50:23.286Z,11.10
2019-04-25T03:52:53.929Z,11.10
2019-04-25T03:55:25.244Z,11.10
2019-04-25T03:58:00.030Z,11.00
2019-04-25T04:00:29.082Z,11.00
2019-04-25T04:02:58.005Z,11.00
2019-04-25T04:05:28.520Z,11.00
2019-04-25T04:07:57.957Z,11.10
2019-04-25T04:10:27.108Z,11.10
2019-04-25T04:13:01.704Z,11.20
2019-04-25T04:15:35.136Z,11.20
2019-04-25T04:18:09.084Z,11.20
2019-04-25T04:20:53.495Z,11.20
2019-04-25T04:23:57.243Z,11.30
2019-04-25T04:26:26.870Z,11.30
2019-04-25T04:28:56.406Z,11.30
2019-04-25T04:31:25.608Z,11.30
2019-04-25T04:33:56.204Z,11.30
2019-04-25T04:36:28.149Z,11.40
2019-04-25T04:38:57.307Z,11.40
2019-04-25T04:41:29.769Z,11.40
2019-04-25T04:44:01.432Z,11.50
2019-04-25T04:46:30.978Z,11.50
2019-04-25T04:48:59.901Z,11.50
2019-04-25T04:51:30.751Z,11.50
2019-04-25T04:54:00.520Z,11.60
2019-04-25T04:56:29.931Z,11.60
2019-04-25T04:58:59.019Z,11.60
2019-04-25T05:01:35.589Z,11.60
2019-04-25T05:04:14.881Z,11.60
2019-04-25T05:06:53.707Z,11.70
2019-04-25T05:09:30.510Z,11.70
2019-04-25T05:12:00.290Z,11.80
2019-04-25T05:14:29.473Z,11.80
2019-04-25T05:16:59.603Z,11.80
2019-04-25T05:19:29.349Z,11.80
2019-04-25T05:21:58.586Z,11.80
2019-04-25T05:24:27.984Z,11.80
2019-04-25T05:27:00.157Z,11.80
2019-04-25T05:29:29.897Z,11.80
2019-04-25T05:32:04.188Z,11.90
2019-04-25T05:34:46.099Z,11.80
2019-04-25T05:37:16.357Z,11.90
2019-04-25T05:39:46.503Z,11.90
2019-04-25T05:42:30.343Z,12.00
2019-04-25T05:45:00.680Z,12.10
2019-04-25T05:47:29.832Z,12.20
2019-04-25T05:49:59.463Z,12.20
2019-04-25T05:52:28.896Z,12.30
2019-04-25T05:54:58.158Z,12.40
2019-04-25T05:57:27.071Z,12.40
2019-04-25T05:59:56.076Z,12.50
2019-04-25T06:02:25.760Z,12.50
2019-04-25T06:04:55.773Z,12.60
2019-04-25T06:07:25.789Z,12.60
2019-04-25T06:10:18.068Z,12.60
2019-04-25T06:12:55.138Z,12.70
2019-04-25T06:15:28.020Z,12.70
2019-04-25T06:18:10.590Z,12.80
2019-04-25T06:20:39.995Z,12.80
2019-04-25T06:23:25.607Z,12.90
2019-04-25T06:25:54.514Z,12.90
2019-04-25T06:28:26.214Z,12.90
2019-04-25T06:30:57.563Z,12.90
2019-04-25T06:33:27.096Z,12.90
2019-04-25T06:35:56.949Z,12.90
2019-04-25T06:38:27.264Z,12.90
2019-04-25T06:41:15.757Z,12.90
2019-04-25T06:43:48.539Z,12.90
2019-04-25T06:46:35.142Z,12.80
2019-04-25T06:49:14.826Z,12.70
2019-04-25T06:51:56.616Z,12.70
2019-04-25T06:54:27.203Z,12.70
2019-04-25T06:56:58.577Z,12.60
2019-04-25T06:59:30.136Z,12.60
2019-04-25T07:01:59.141Z,12.60
2019-04-25T07:04:33.957Z,12.60
2019-04-25T07:07:10.655Z,12.60
2019-04-25T07:09:34.983Z,12.70
2019-04-25T07:12:05.720Z,12.60
2019-04-25T07:14:36.884Z,12.60
2019-04-25T07:17:08.821Z,12.60
2019-04-25T07:19:38.030Z,12.70
2019-04-25T07:22:07.091Z,12.80
2019-04-25T07:24:36.151Z,12.90
2019-04-25T07:27:30.731Z,13.00
2019-04-25T07:30:27.261Z,13.10
2019-04-25T07:32:54.129Z,13.20
2019-04-25T07:35:23.416Z,13.20
2019-04-25T07:37:53.923Z,13.40
2019-04-25T07:40:23.870Z,13.50
2019-04-25T07:42:53.585Z,13.60
2019-04-25T07:45:23.901Z,13.60
2019-04-25T07:47:54.149Z,13.60
2019-04-25T07:50:23.862Z,13.60
2019-04-25T07:52:55.464Z,13.60
2019-04-25T07:55:29.145Z,13.70
2019-04-25T07:57:58.547Z,13.70
2019-04-25T08:00:27.703Z,13.70
2019-04-25T08:02:56.804Z,13.70
2019-04-25T08:05:35.045Z,13.80
2019-04-25T08:08:04.518Z,13.90
2019-04-25T08:10:56.223Z,14.10
2019-04-25T08:13:27.746Z,14.10
2019-04-25T08:15:58.960Z,14.30
2019-04-25T08:18:28.695Z,14.50
2019-04-25T08:22:07.020Z,14.50
2019-04-25T08:24:45.621Z,14.70
2019-04-25T08:28:10.439Z,14.70
2019-04-25T09:18:28.030Z,15.60
2019-04-25T09:28:58.516Z,16.00
2019-04-25T09:35:04.423Z,16.10
2019-04-25T09:38:53.881Z,16.40
2019-04-25T09:41:33.582Z,16.50
2019-04-25T10:06:06.608Z,17.60
2019-04-25T10:08:36.893Z,18.00
2019-04-25T10:11:08.901Z,17.90
2019-04-25T10:13:41.881Z,17.90
2019-04-25T10:16:11.967Z,18.30
2019-04-25T10:18:41.315Z,18.40
2019-04-25T10:21:11.974Z,18.40
2019-04-25T10:23:46.259Z,18.50
2019-04-25T10:26:18.733Z,18.60
2019-04-25T10:28:47.885Z,18.30
2019-04-25T10:31:17.153Z,18.50
2019-04-25T10:33:47.005Z,18.70
2019-04-25T10:36:16.139Z,18.40
2019-04-25T10:39:00.501Z,18.20
2019-04-25T10:41:16.276Z,18.40
2019-04-25T10:43:46.115Z,18.30
2019-04-25T10:46:15.666Z,18.30
2019-04-25T10:48:45.949Z,18.00
2019-04-25T10:51:15.107Z,18.10
2019-04-25T10:53:47.057Z,18.70
2019-04-25T10:56:39.237Z,18.90
2019-04-25T10:59:11.726Z,19.40
2019-04-25T11:01:41.304Z,19.80
2019-04-25T11:04:29.557Z,19.50
2019-04-25T11:07:00.836Z,18.90
2019-04-25T11:09:31.827Z,18.70
2019-04-25T11:12:02.695Z,18.20
2019-04-25T11:14:34.324Z,18.00
2019-04-25T11:17:04.415Z,17.90
2019-04-25T11:19:37.175Z,18.00
2019-04-25T11:22:05.574Z,18.10
2019-04-25T11:24:39.644Z,18.30
2019-04-25T11:27:09.871Z,18.30
2019-04-25T11:29:47.142Z,18.60
2019-04-25T11:32:19.916Z,18.60
2019-04-25T11:34:49.336Z,19.00
2019-04-25T11:37:19.156Z,19.60
2019-04-25T11:40:07.626Z,19.90
2019-04-25T11:42:39.772Z,20.10
2019-04-25T11:45:11.002Z,20.00
2019-04-25T11:47:45.817Z,19.80
2019-04-25T11:50:18.018Z,19.50
2019-04-25T11:52:50.450Z,19.30
2019-04-25T11:55:51.359Z,18.90
2019-04-25T11:58:31.777Z,18.60
2019-04-25T12:01:18.679Z,18.70
2019-04-25T12:03:48.938Z,18.80
2019-04-25T12:06:18.869Z,18.80
2019-04-25T12:08:48.901Z,18.70
2019-04-25T12:11:18.399Z,18.30
2019-04-25T12:13:48.085Z,18.30
2019-04-25T12:16:17.633Z,18.20
2019-04-25T12:18:50.268Z,18.00
2019-04-25T12:21:19.840Z,18.00
2019-04-25T12:23:51.746Z,17.90
2019-04-25T12:26:21.204Z,18.00
2019-04-25T12:28:53.686Z,17.90
2019-04-25T12:31:21.177Z,17.60
2019-04-25T12:33:54.556Z,17.60
2019-04-25T12:36:24.020Z,17.40
2019-04-25T12:38:54.564Z,17.20
2019-04-25T12:41:24.961Z,17.00
2019-04-25T12:44:08.738Z,16.90
2019-04-25T12:46:40.775Z,16.70
2019-04-25T12:49:09.603Z,16.50
2019-04-25T12:51:38.423Z,16.20
2019-04-25T12:54:07.231Z,15.90
2019-04-25T12:56:39.288Z,15.70
2019-04-25T12:59:09.740Z,15.50
2019-04-25T13:01:38.750Z,15.30
2019-04-25T13:04:10.085Z,15.00
2019-04-25T13:06:39.383Z,14.80
2019-04-25T13:09:08.602Z,14.70
2019-04-25T13:11:37.679Z,14.50
2019-04-25T13:14:06.824Z,14.50
2019-04-25T13:16:41.897Z,14.40
2019-04-25T13:19:23.732Z,14.30
2019-04-25T13:21:47.784Z,14.10
2019-04-25T13:24:16.589Z,14.10
2019-04-25T13:27:06.034Z,14.20
2019-04-25T13:29:45.024Z,14.20
2019-04-25T13:32:33.154Z,14.20
2019-04-25T13:35:04.805Z,14.30
2019-04-25T13:37:34.456Z,14.40
2019-04-25T13:40:05.459Z,14.30
2019-04-25T13:42:34.285Z,14.40
2019-04-25T13:45:05.059Z,14.30
2019-04-25T13:47:34.355Z,14.20
2019-04-25T13:50:03.390Z,14.10
2019-04-25T13:52:33.307Z,14.00
2019-04-25T13:55:03.786Z,13.90
2019-04-25T13:57:32.808Z,13.90
2019-04-25T14:00:02.179Z,13.90
2019-04-25T14:02:31.662Z,13.80
2019-04-25T14:05:00.741Z,13.90
2019-04-25T14:07:29.972Z,13.80
2019-04-25T14:09:58.994Z,13.80
2019-04-25T14:12:29.026Z,13.80
2019-04-25T14:14:58.957Z,13.80
2019-04-25T14:17:55.924Z,13.90
2019-04-25T14:20:34.840Z,13.90
2019-04-25T14:23:07.131Z,14.00
2019-04-25T14:25:36.446Z,14.10
2019-04-25T14:28:06.658Z,14.30
2019-04-25T14:30:39.600Z,14.50
2019-04-25T14:33:08.526Z,14.60
2019-04-25T14:35:43.439Z,14.90
2019-04-25T14:38:14.454Z,14.90
2019-04-25T14:40:43.328Z,15.00
2019-04-25T14:43:17.482Z,15.10
2019-04-25T14:45:46.379Z,15.20
2019-04-25T14:48:15.144Z,15.30
2019-04-25T14:50:44.471Z,15.40
2019-04-25T14:53:13.464Z,15.50
2019-04-25T14:56:04.416Z,15.50
2019-04-25T14:58:42.909Z,15.50
2019-04-25T15:01:13.801Z,15.40
2019-04-25T15:04:04.178Z,15.30
2019-04-25T15:06:33.598Z,16.30
2019-04-25T15:09:02.957Z,15.10
2019-04-25T15:11:32.280Z,14.90
2019-04-25T15:14:01.716Z,14.80
2019-04-25T15:16:31.170Z,14.60
2019-04-25T15:19:00.272Z,14.60
2019-04-25T15:21:31.792Z,14.90
2019-04-25T15:24:02.922Z,14.80
2019-04-25T15:26:40.316Z,14.90
2019-04-25T15:29:22.436Z,14.80
2019-04-25T15:32:14.475Z,14.70
2019-04-25T15:34:27.682Z,14.60
2019-04-25T15:37:07.660Z,14.40
2019-04-25T15:39:46.700Z,14.50
2019-04-25T15:42:46.682Z,14.50
2019-04-25T15:45:34.459Z,14.50
2019-04-25T15:48:04.596Z,14.50
2019-04-25T15:50:34.068Z,14.30
2019-04-25T15:53:03.403Z,14.40
2019-04-25T15:55:32.744Z,14.40
2019-04-25T15:58:01.719Z,14.70
2019-04-25T16:00:35.049Z,15.10
2019-04-25T16:03:04.765Z,15.20
2019-04-25T16:05:33.848Z,15.20
2019-04-25T16:08:06.203Z,14.90
2019-04-25T16:10:35.189Z,14.70
2019-04-25T16:13:04.192Z,14.60
2019-04-25T16:15:36.109Z,14.70
2019-04-25T16:18:06.584Z,14.70
2019-04-25T16:20:37.552Z,14.70
2019-04-25T16:23:07.952Z,14.60
2019-04-25T16:25:37.032Z,14.60
2019-04-25T16:28:06.149Z,14.50
2019-04-25T16:30:35.246Z,14.50
2019-04-25T16:33:04.365Z,14.50
2019-04-25T16:35:33.459Z,14.50
2019-04-25T16:38:03.173Z,14.40
2019-04-25T16:40:32.255Z,14.30
2019-04-25T16:43:03.124Z,14.30
2019-04-25T16:45:32.078Z,14.40
2019-04-25T16:48:01.152Z,14.30
2019-04-25T16:50:36.518Z,14.30
2019-04-25T16:53:05.553Z,14.40
2019-04-25T16:55:34.890Z,14.40
2019-04-25T16:58:04.585Z,14.40
2019-04-25T17:00:42.874Z,14.40
2019-04-25T17:03:14.272Z,14.40
2019-04-25T17:05:44.123Z,14.40
2019-04-25T17:08:13.763Z,14.40
2019-04-25T17:10:42.716Z,14.40
2019-04-25T17:13:12.422Z,14.30
2019-04-25T17:16:02.453Z,14.30
2019-04-25T17:18:38.605Z,14.30
2019-04-25T17:21:11.603Z,14.30
2019-04-25T17:23:41.311Z,14.30
2019-04-25T17:26:10.610Z,14.20
2019-04-25T17:28:42.137Z,14.10
2019-04-25T17:31:20.278Z,13.90
2019-04-25T17:33:57.101Z,13.50
2019-04-25T17:36:36.089Z,13.30
2019-04-25T17:39:32.131Z,12.90
2019-04-25T17:42:14.516Z,12.80
2019-04-25T17:44:45.356Z,12.80
2019-04-25T17:47:18.031Z,12.80
2019-04-25T17:49:50.590Z,12.70
2019-04-25T17:52:30.640Z,12.80
2019-04-25T17:55:02.061Z,12.80
2019-04-25T17:57:32.978Z,12.80
2019-04-25T18:00:02.225Z,12.90
2019-04-25T18:02:36.982Z,12.90
2019-04-25T18:05:06.122Z,12.90
2019-04-25T18:07:36.424Z,12.90
2019-04-25T18:10:09.541Z,13.00
2019-04-25T18:12:38.756Z,13.10
2019-04-25T18:15:09.759Z,13.10
2019-04-25T18:17:42.842Z,13.10
2019-04-25T18:20:23.293Z,13.10
2019-04-25T18:23:18.911Z,13.10
2019-04-25T18:26:11.063Z,13.10
2019-04-25T18:28:44.156Z,13.10
2019-04-25T18:31:13.166Z,13.10
2019-04-25T18:33:42.279Z,13.10
2019-04-25T18:36:29.237Z,13.10
2019-04-25T18:39:04.701Z,13.00
2019-04-25T18:41:55.586Z,13.00
2019-04-25T18:44:27.602Z,13.10
2019-04-25T18:46:56.561Z,13.10
2019-04-25T18:49:25.658Z,13.00
2019-04-25T18:51:58.227Z,13.00
2019-04-25T18:54:47.438Z,13.00
2019-04-25T18:57:42.895Z,13.00
2019-04-25T19:00:30.235Z,13.00
2019-04-25T19:03:27.337Z,13.00
2019-04-25T19:05:59.344Z,12.90
2019-04-25T19:08:28.455Z,12.80
2019-04-25T19:10:57.539Z,12.80
2019-04-25T19:13:27.548Z,12.80
2019-04-25T19:15:56.777Z,12.70
2019-04-25T19:18:25.746Z,12.70
2019-04-25T19:20:54.657Z,12.70
2019-04-25T19:23:23.791Z,12.70
2019-04-25T19:25:52.748Z,12.60
2019-04-25T19:28:21.795Z,12.60
2019-04-25T19:30:51.714Z,12.50
2019-04-25T19:33:34.688Z,12.50
2019-04-25T19:35:53.215Z,12.50
2019-04-25T19:38:22.395Z,12.50
2019-04-25T19:41:10.290Z,12.40
2019-04-25T19:44:07.527Z,12.40
2019-04-25T19:46:41.862Z,12.40
2019-04-25T19:49:11.860Z,12.40
2019-04-25T19:51:41.789Z,12.30
2019-04-25T19:54:11.085Z,12.30
2019-04-25T19:56:43.817Z,12.30
2019-04-25T19:59:12.805Z,12.30
2019-04-25T20:01:44.382Z,12.30
2019-04-25T20:04:28.655Z,12.20
2019-04-25T20:07:19.085Z,12.30
2019-04-25T20:10:09.418Z,12.30
2019-04-25T20:12:50.533Z,12.30
2019-04-25T20:15:17.591Z,12.20
2019-04-25T20:17:47.713Z,12.10
2019-04-25T20:20:16.607Z,12.10
2019-04-25T20:22:46.175Z,12.10
2019-04-25T20:25:15.075Z,12.10
2019-04-25T20:27:44.274Z,12.10
2019-04-25T20:30:15.181Z,12.10
2019-04-25T20:32:44.736Z,12.10
2019-04-25T20:35:14.945Z,12.10
2019-04-25T20:37:46.097Z,12.00
2019-04-25T20:40:15.844Z,12.00
2019-04-25T20:42:45.535Z,12.00
2019-04-25T20:45:16.700Z,12.00
2019-04-25T20:47:46.557Z,12.00
2019-04-25T20:50:15.909Z,12.00
2019-04-25T20:52:45.263Z,12.00
2019-04-25T20:55:23.154Z,11.90
2019-04-25T20:58:10.984Z,11.90
2019-04-25T21:00:41.696Z,11.90
2019-04-25T21:03:15.807Z,11.90
2019-04-25T21:05:49.643Z,11.90
2019-04-25T21:08:24.420Z,11.90
2019-04-25T21:10:55.852Z,11.90
2019-04-25T21:13:39.766Z,11.90
2019-04-25T21:19:39.876Z,11.90
2019-04-25T21:22:09.415Z,11.90
2019-04-25T21:24:38.704Z,11.90
2019-04-25T21:27:08.007Z,11.90
2019-04-25T21:29:37.421Z,11.90
2019-04-25T21:32:53.801Z,11.90
2019-04-25T21:35:35.242Z,12.00
2019-04-25T21:38:05.606Z,11.90
2019-04-25T21:41:04.236Z,11.90
2019-04-25T21:43:41.391Z,11.90
2019-04-25T21:46:19.871Z,11.90
2019-04-25T21:49:07.166Z,11.90
2019-04-25T21:51:39.520Z,11.90
2019-04-25T21:54:22.912Z,11.90
2019-04-25T21:56:57.387Z,11.90
2019-04-25T21:59:31.341Z,11.90
2019-04-25T22:02:05.297Z,11.90
2019-04-25T22:04:40.109Z,11.90
2019-04-25T22:07:09.659Z,11.90
2019-04-25T22:09:51.791Z,11.90
2019-04-25T22:12:27.636Z,11.80
2019-04-25T22:15:10.730Z,11.80
2019-04-25T22:18:08.853Z,11.80
2019-04-25T22:20:58.737Z,11.80
2019-04-25T22:26:30.324Z,11.80
2019-04-25T22:29:13.859Z,11.70
2019-04-25T22:32:09.250Z,11.70
2019-04-25T22:35:10.706Z,11.60
2019-04-25T22:37:43.664Z,11.60
2019-04-25T22:40:16.781Z,11.50
2019-04-25T22:42:49.548Z,11.50
2019-04-25T22:45:18.744Z,11.50
2019-04-25T22:47:47.955Z,11.50
2019-04-25T22:50:25.687Z,11.50
2019-04-25T22:52:55.024Z,11.50
2019-04-25T22:55:24.237Z,11.40
2019-04-25T22:57:54.635Z,11.40
2019-04-25T23:00:28.748Z,11.40
2019-04-25T23:03:21.428Z,11.40
2019-04-25T23:05:57.894Z,11.50
2019-04-25T23:08:28.829Z,11.30
2019-04-25T23:10:58.308Z,11.20
2019-04-25T23:13:31.305Z,11.20
2019-04-25T23:16:04.114Z,11.20
2019-04-25T23:18:37.074Z,11.10
2019-04-25T23:21:06.781Z,11.10
2019-04-25T23:23:38.446Z,11.10
2019-04-25T23:26:16.836Z,11.00
2019-04-25T23:28:46.639Z,11.00
2019-04-25T23:31:20.130Z,11.00
2019-04-25T23:33:52.310Z,11.00
2019-04-25T23:36:22.320Z,11.00
2019-04-25T23:38:52.489Z,10.90
2019-04-25T23:41:22.115Z,10.90
2019-04-25T23:43:51.371Z,10.90
2019-04-25T23:46:21.390Z,10.90
2019-04-25T23:48:51.046Z,10.80
2019-04-25T23:51:23.710Z,10.80
2019-04-25T23:53:53.481Z,10.80
2019-04-25T23:56:22.996Z,10.80
2019-04-25T23:58:53.080Z,10.80
